createdAt,value
2018-10-21T00:00:42.683Z,65.04
2018-10-21T00:03:09.043Z,65.17
2018-10-21T00:05:35.307Z,65.38
2018-10-21T00:08:01.610Z,65.44
2018-10-21T00:10:27.908Z,65.55
2018-10-21T00:12:54.237Z,65.58
2018-10-21T00:15:20.618Z,65.64
2018-10-21T00:17:46.890Z,65.86
2018-10-21T00:20:13.194Z,65.83
2018-10-21T00:22:39.492Z,65.94
2018-10-21T00:25:05.787Z,66.02
2018-10-21T00:27:32.093Z,66.08
2018-10-21T00:29:58.396Z,66.20
2018-10-21T00:32:24.705Z,66.31
2018-10-21T00:34:51.003Z,66.40
2018-10-21T00:37:17.325Z,66.46
2018-10-21T00:39:43.693Z,66.58
2018-10-21T00:42:10.014Z,66.75
2018-10-21T00:44:36.315Z,66.79
2018-10-21T00:47:02.682Z,66.95
2018-10-21T00:49:29.005Z,66.91
2018-10-21T00:51:55.312Z,66.95
2018-10-21T00:54:21.637Z,67.04
2018-10-21T00:56:47.970Z,66.99
2018-10-21T00:59:14.295Z,67.13
2018-10-21T01:01:40.624Z,67.26
2018-10-21T01:04:07.005Z,67.36
2018-10-21T01:06:33.248Z,67.47
2018-10-21T01:08:59.595Z,67.43
2018-10-21T01:11:25.893Z,67.34
2018-10-21T01:13:52.196Z,67.32
2018-10-21T01:16:18.517Z,67.37
2018-10-21T01:18:44.834Z,67.42
2018-10-21T01:21:11.259Z,67.34
2018-10-21T01:23:37.499Z,67.43
2018-10-21T01:26:03.812Z,67.52
2018-10-21T01:28:30.146Z,67.66
2018-10-21T01:30:56.445Z,67.84
2018-10-21T01:33:22.745Z,68.10
2018-10-21T01:35:49.052Z,68.37
2018-10-21T01:38:15.423Z,68.36
2018-10-21T01:40:41.672Z,68.45
2018-10-21T01:43:07.978Z,68.53
2018-10-21T01:45:34.303Z,68.57
2018-10-21T01:48:00.610Z,68.71
2018-10-21T01:50:26.975Z,69.13
2018-10-21T01:52:53.347Z,69.27
2018-10-21T01:55:19.672Z,69.40
2018-10-21T01:57:46.038Z,69.42
2018-10-21T02:00:12.362Z,69.19
2018-10-21T02:02:38.663Z,69.23
2018-10-21T02:05:04.965Z,69.10
2018-10-21T02:07:31.289Z,69.36
2018-10-21T02:09:57.592Z,69.70
2018-10-21T02:12:23.891Z,69.81
2018-10-21T02:14:50.201Z,69.79
2018-10-21T02:17:16.524Z,70.06
2018-10-21T02:19:42.826Z,70.08
2018-10-21T02:22:09.123Z,70.17
2018-10-21T02:24:35.423Z,70.33
2018-10-21T02:27:01.779Z,70.53
2018-10-21T02:29:28.050Z,70.60
2018-10-21T02:31:54.358Z,70.73
2018-10-21T02:34:20.685Z,70.80
2018-10-21T02:36:47.011Z,70.82
2018-10-21T02:39:13.382Z,70.79
2018-10-21T02:41:39.635Z,70.71
2018-10-21T02:44:05.971Z,70.51
2018-10-21T02:46:32.266Z,70.26
2018-10-21T02:48:58.599Z,69.92
2018-10-21T02:51:24.902Z,69.75
2018-10-21T02:53:51.251Z,69.21
2018-10-21T02:56:17.573Z,69.02
2018-10-21T02:58:43.881Z,69.08
2018-10-21T03:01:10.213Z,68.89
2018-10-21T03:03:36.548Z,68.86
2018-10-21T03:06:02.873Z,68.76
2018-10-21T03:08:29.197Z,68.72
2018-10-21T03:10:55.550Z,68.65
2018-10-21T03:13:21.896Z,68.74
2018-10-21T03:15:48.221Z,68.60
2018-10-21T03:18:14.542Z,68.52
2018-10-21T03:20:40.816Z,68.30
2018-10-21T03:23:07.116Z,67.79
2018-10-21T03:25:33.415Z,67.68
2018-10-21T03:27:59.710Z,67.65
2018-10-21T03:30:26.007Z,67.59
2018-10-21T03:32:52.310Z,67.79
2018-10-21T03:35:18.611Z,67.78
2018-10-21T03:37:44.980Z,67.78
2018-10-21T03:40:11.366Z,67.82
2018-10-21T03:42:37.682Z,67.94
2018-10-21T03:45:04.006Z,67.93
2018-10-21T03:47:30.303Z,68.03
2018-10-21T03:49:56.633Z,68.12
2018-10-21T03:52:22.963Z,68.18
2018-10-21T03:54:49.263Z,68.11
2018-10-21T03:57:15.643Z,68.32
2018-10-21T03:59:41.944Z,68.27
2018-10-21T04:02:08.275Z,68.51
2018-10-21T04:04:34.571Z,68.91
2018-10-21T04:07:00.871Z,69.11
2018-10-21T04:09:27.169Z,69.06
2018-10-21T04:11:53.516Z,69.29
2018-10-21T04:14:19.851Z,69.68
2018-10-21T04:16:46.194Z,69.88
2018-10-21T04:19:12.567Z,70.05
2018-10-21T04:21:38.891Z,70.32
2018-10-21T04:24:05.191Z,70.47
2018-10-21T04:26:31.517Z,70.28
2018-10-21T04:28:57.885Z,70.21
2018-10-21T04:31:24.184Z,70.37
2018-10-21T04:33:50.527Z,70.57
2018-10-21T04:36:16.844Z,70.76
2018-10-21T04:38:43.220Z,71.02
2018-10-21T04:41:09.539Z,71.34
2018-10-21T04:43:35.861Z,71.63
2018-10-21T04:46:02.170Z,71.88
2018-10-21T04:48:28.461Z,71.88
2018-10-21T04:50:54.758Z,72.02
2018-10-21T04:53:21.056Z,72.18
2018-10-21T04:55:47.355Z,72.31
2018-10-21T04:58:13.746Z,72.40
2018-10-21T05:00:40.018Z,72.63
2018-10-21T05:03:06.301Z,72.77
2018-10-21T05:05:32.627Z,72.67
2018-10-21T05:07:58.953Z,72.66
2018-10-21T05:10:25.254Z,72.92
2018-10-21T05:12:51.603Z,72.42
2018-10-21T05:15:17.993Z,72.37
2018-10-21T05:17:44.246Z,72.18
2018-10-21T05:20:10.570Z,71.84
2018-10-21T05:22:36.894Z,72.09
2018-10-21T05:25:03.219Z,72.08
2018-10-21T05:27:29.519Z,72.05
2018-10-21T05:29:55.848Z,72.39
2018-10-21T05:32:22.168Z,72.38
2018-10-21T05:34:48.465Z,72.37
2018-10-21T05:37:14.789Z,72.19
2018-10-21T05:39:41.117Z,72.20
2018-10-21T05:42:07.436Z,72.33
2018-10-21T05:44:33.738Z,72.34
2018-10-21T05:47:00.104Z,72.69
2018-10-21T05:49:26.425Z,73.06
2018-10-21T05:51:52.797Z,73.48
2018-10-21T05:54:19.090Z,73.48
2018-10-21T05:56:45.392Z,73.44
2018-10-21T05:59:11.730Z,74.02
2018-10-21T06:01:38.057Z,74.03
2018-10-21T06:04:04.379Z,73.84
2018-10-21T06:06:30.660Z,73.59
2018-10-21T06:08:56.985Z,73.56
2018-10-21T06:11:23.350Z,73.85
2018-10-21T06:13:49.668Z,73.75
2018-10-21T06:16:16.023Z,73.78
2018-10-21T06:18:42.271Z,74.02
2018-10-21T06:21:08.573Z,74.31
2018-10-21T06:23:34.935Z,74.78
2018-10-21T06:26:01.205Z,75.16
2018-10-21T06:28:27.507Z,75.37
2018-10-21T06:30:53.803Z,75.58
2018-10-21T06:33:20.151Z,75.78
2018-10-21T06:35:46.480Z,75.94
2018-10-21T06:38:12.824Z,76.23
2018-10-21T06:40:39.154Z,76.50
2018-10-21T06:43:05.504Z,76.36
2018-10-21T06:45:31.891Z,76.34
2018-10-21T06:47:58.179Z,76.51
2018-10-21T06:50:24.475Z,76.66
2018-10-21T06:52:50.802Z,76.83
2018-10-21T06:55:17.134Z,77.06
2018-10-21T06:57:43.544Z,77.13
2018-10-21T07:00:09.783Z,77.30
2018-10-21T07:02:36.159Z,77.46
2018-10-21T07:05:02.483Z,77.75
2018-10-21T07:07:28.860Z,77.98
2018-10-21T07:09:55.213Z,78.12
2018-10-21T07:12:21.526Z,78.47
2018-10-21T07:14:47.845Z,78.26
2018-10-21T07:17:14.301Z,78.39
2018-10-21T07:19:40.595Z,78.27
2018-10-21T07:22:06.934Z,78.24
2018-10-21T07:24:33.230Z,78.41
2018-10-21T07:26:59.524Z,78.63
2018-10-21T07:29:25.860Z,78.77
2018-10-21T07:31:52.191Z,78.90
2018-10-21T07:34:18.563Z,79.25
2018-10-21T07:36:44.822Z,80.12
2018-10-21T07:39:11.120Z,80.12
2018-10-21T07:41:37.423Z,79.87
2018-10-21T07:44:03.732Z,80.86
2018-10-21T07:46:30.094Z,80.68
2018-10-21T07:48:56.445Z,80.90
2018-10-21T07:51:22.725Z,80.52
2018-10-21T07:53:49.625Z,80.79
2018-10-21T07:56:15.929Z,80.72
2018-10-21T07:58:42.246Z,80.74
2018-10-21T08:01:08.582Z,81.12
2018-10-21T08:03:34.875Z,80.92
2018-10-21T08:06:01.225Z,80.99
2018-10-21T08:08:27.608Z,81.02
2018-10-21T08:10:53.884Z,80.46
2018-10-21T08:13:20.210Z,80.41
2018-10-21T08:15:46.507Z,80.12
2018-10-21T08:18:12.833Z,80.24
2018-10-21T08:20:39.166Z,81.60
2018-10-21T08:23:05.507Z,82.71
2018-10-21T08:25:31.830Z,83.83
2018-10-21T08:27:58.204Z,84.59
2018-10-21T08:30:24.562Z,83.41
2018-10-21T08:32:50.880Z,83.64
2018-10-21T08:35:17.197Z,81.73
2018-10-21T08:37:43.518Z,82.84
2018-10-21T08:40:09.953Z,81.49
2018-10-21T08:42:36.215Z,82.06
2018-10-21T08:45:02.556Z,81.88
2018-10-21T08:47:28.851Z,80.43
2018-10-21T08:49:55.188Z,79.50
2018-10-21T08:52:21.490Z,79.02
2018-10-21T08:54:47.807Z,79.44
2018-10-21T08:57:14.124Z,80.39
2018-10-21T08:59:40.463Z,81.09
2018-10-21T09:02:06.870Z,79.20
2018-10-21T09:04:33.131Z,81.83
2018-10-21T09:06:59.491Z,87.07
2018-10-21T09:09:25.799Z,87.93
2018-10-21T09:11:52.181Z,87.87
2018-10-21T09:14:18.513Z,87.01
2018-10-21T09:16:44.881Z,86.01
2018-10-21T09:19:11.165Z,82.79
2018-10-21T09:21:37.479Z,81.00
2018-10-21T09:24:03.847Z,81.94
2018-10-21T09:26:30.219Z,83.06
2018-10-21T09:28:56.534Z,81.12
2018-10-21T09:31:22.870Z,80.63
2018-10-21T09:33:49.188Z,79.62
2018-10-21T09:36:15.519Z,79.05
2018-10-21T09:38:41.847Z,79.76
2018-10-21T09:41:08.168Z,79.50
2018-10-21T09:43:34.484Z,80.42
2018-10-21T09:46:00.858Z,80.80
2018-10-21T09:48:27.162Z,80.80
2018-10-21T09:50:53.464Z,80.62
2018-10-21T09:53:19.790Z,80.55
2018-10-21T09:55:46.108Z,80.83
2018-10-21T09:58:12.518Z,81.54
2018-10-21T10:00:38.825Z,82.53
2018-10-21T10:03:05.198Z,81.30
2018-10-21T10:05:31.572Z,82.08
2018-10-21T10:07:57.883Z,79.30
2018-10-21T10:10:24.198Z,77.64
2018-10-21T10:12:50.577Z,78.06
2018-10-21T10:15:16.889Z,78.64
2018-10-21T10:17:43.290Z,78.50
2018-10-21T10:20:09.545Z,76.41
2018-10-21T10:22:35.872Z,76.16
2018-10-21T10:25:02.198Z,76.15
2018-10-21T10:27:28.517Z,75.69
2018-10-21T10:29:54.849Z,74.49
2018-10-21T10:32:21.166Z,75.35
2018-10-21T10:34:47.571Z,76.26
2018-10-21T10:37:13.948Z,76.11
2018-10-21T10:39:40.188Z,77.12
2018-10-21T10:42:06.607Z,76.40
2018-10-21T10:44:32.833Z,75.59
2018-10-21T10:46:59.149Z,75.37
2018-10-21T10:49:25.483Z,74.87
2018-10-21T10:51:51.815Z,73.12
2018-10-21T10:54:18.141Z,70.48
2018-10-21T10:56:44.489Z,72.42
2018-10-21T10:59:10.827Z,73.74
2018-10-21T11:01:37.155Z,74.26
2018-10-21T11:04:03.498Z,78.66
2018-10-21T11:06:29.820Z,84.21
2018-10-21T11:08:56.133Z,84.82
2018-10-21T11:11:22.475Z,83.96
2018-10-21T11:13:48.822Z,82.19
2018-10-21T11:16:15.207Z,81.94
2018-10-21T11:18:41.471Z,82.73
2018-10-21T11:21:07.795Z,83.24
2018-10-21T11:23:34.172Z,81.40
2018-10-21T11:26:00.503Z,78.88
2018-10-21T11:28:26.833Z,79.29
2018-10-21T11:30:53.165Z,79.30
2018-10-21T11:33:19.492Z,80.59
2018-10-21T11:35:45.795Z,81.08
2018-10-21T11:38:12.137Z,80.73
2018-10-21T11:40:38.503Z,81.12
2018-10-21T11:43:04.813Z,80.18
2018-10-21T11:45:31.197Z,79.81
2018-10-21T11:47:57.549Z,80.34
2018-10-21T11:50:23.847Z,79.86
2018-10-21T11:52:50.171Z,79.69
2018-10-21T11:55:16.558Z,80.76
2018-10-21T11:57:42.835Z,81.77
2018-10-21T12:00:09.193Z,82.01
2018-10-21T12:02:35.510Z,80.63
2018-10-21T12:05:01.838Z,80.18
2018-10-21T12:07:28.155Z,80.66
2018-10-21T12:09:54.509Z,79.46
2018-10-21T12:12:20.814Z,79.38
2018-10-21T12:14:47.134Z,79.63
2018-10-21T12:17:13.515Z,80.05
2018-10-21T12:19:39.878Z,80.32
2018-10-21T12:22:06.196Z,80.15
2018-10-21T12:24:32.506Z,79.76
2018-10-21T12:26:58.835Z,79.70
2018-10-21T12:29:25.169Z,79.52
2018-10-21T12:31:51.497Z,79.29
2018-10-21T12:34:17.906Z,79.33
2018-10-21T12:36:44.151Z,78.54
2018-10-21T12:39:10.522Z,78.24
2018-10-21T12:41:36.841Z,78.21
2018-10-21T12:44:03.201Z,78.36
2018-10-21T12:46:29.524Z,78.96
2018-10-21T12:48:55.877Z,79.54
2018-10-21T12:51:22.256Z,79.81
2018-10-21T12:53:48.579Z,79.07
2018-10-21T12:56:14.953Z,79.29
2018-10-21T12:58:41.297Z,79.08
2018-10-21T13:01:07.750Z,78.28
2018-10-21T13:03:33.946Z,78.38
2018-10-21T13:06:00.302Z,78.58
2018-10-21T13:08:26.646Z,79.26
2018-10-21T13:10:52.976Z,79.16
2018-10-21T13:13:19.330Z,79.76
2018-10-21T13:15:45.641Z,78.53
2018-10-21T13:18:11.963Z,78.85
2018-10-21T13:20:38.281Z,78.84
2018-10-21T13:23:04.612Z,78.64
2018-10-21T13:25:30.944Z,77.32
2018-10-21T13:27:57.280Z,76.96
2018-10-21T13:30:23.599Z,76.77
2018-10-21T13:32:49.922Z,76.75
2018-10-21T13:35:16.249Z,76.92
2018-10-21T13:37:42.569Z,76.60
2018-10-21T13:40:08.983Z,77.00
2018-10-21T13:42:35.256Z,77.11
2018-10-21T13:45:01.556Z,77.69
2018-10-21T13:47:27.882Z,78.73
2018-10-21T13:49:54.205Z,79.19
2018-10-21T13:52:20.528Z,79.04
2018-10-21T13:54:46.853Z,79.81
2018-10-21T13:57:13.171Z,80.23
2018-10-21T13:59:39.491Z,79.51
2018-10-21T14:02:05.818Z,79.25
2018-10-21T14:04:32.156Z,79.41
2018-10-21T14:06:58.537Z,79.04
2018-10-21T14:09:24.803Z,79.62
2018-10-21T14:11:51.132Z,79.67
2018-10-21T14:14:17.463Z,78.78
2018-10-21T14:16:43.870Z,78.80
2018-10-21T14:19:10.107Z,79.55
2018-10-21T14:21:36.435Z,79.62
2018-10-21T14:24:02.794Z,80.07
2018-10-21T14:26:29.094Z,79.83
2018-10-21T14:28:55.410Z,79.06
2018-10-21T14:31:21.732Z,79.66
2018-10-21T14:33:48.046Z,80.10
2018-10-21T14:36:14.425Z,79.68
2018-10-21T14:38:40.752Z,78.49
2018-10-21T14:41:07.077Z,78.28
2018-10-21T14:43:33.407Z,78.71
2018-10-21T14:45:59.917Z,78.06
2018-10-21T14:48:26.071Z,78.01
2018-10-21T14:50:52.386Z,78.25
2018-10-21T14:53:18.725Z,77.70
2018-10-21T14:55:45.111Z,77.68
2018-10-21T14:58:11.441Z,76.92
2018-10-21T15:00:37.899Z,77.33
2018-10-21T15:03:04.177Z,77.35
2018-10-21T15:05:30.496Z,77.29
2018-10-21T15:07:56.798Z,78.13
2018-10-21T15:10:23.108Z,78.10
2018-10-21T15:12:49.449Z,78.12
2018-10-21T15:15:15.812Z,77.98
2018-10-21T15:17:42.126Z,77.63
2018-10-21T15:20:08.512Z,78.19
2018-10-21T15:22:34.844Z,77.56
2018-10-21T15:25:01.186Z,77.46
2018-10-21T15:27:27.518Z,76.48
2018-10-21T15:29:53.899Z,75.74
2018-10-21T15:32:21.541Z,75.19
2018-10-21T15:34:46.676Z,75.21
2018-10-21T15:37:12.965Z,74.95
2018-10-21T15:39:39.338Z,74.74
2018-10-21T15:42:05.644Z,75.31
2018-10-21T15:44:31.971Z,75.42
2018-10-21T15:46:58.289Z,75.76
2018-10-21T15:49:24.615Z,76.24
2018-10-21T15:51:50.992Z,76.32
2018-10-21T15:54:17.274Z,76.72
2018-10-21T15:56:43.605Z,76.69
2018-10-21T15:59:09.941Z,77.25
2018-10-21T16:01:36.268Z,78.25
2018-10-21T16:04:02.657Z,78.81
2018-10-21T16:06:28.911Z,78.16
2018-10-21T16:08:55.252Z,77.56
2018-10-21T16:11:21.579Z,77.86
2018-10-21T16:13:47.962Z,78.22
2018-10-21T16:16:14.286Z,78.65
2018-10-21T16:18:40.585Z,78.78
2018-10-21T16:21:06.907Z,79.35
2018-10-21T16:23:33.237Z,78.30
2018-10-21T16:25:59.648Z,78.71
2018-10-21T16:28:25.981Z,77.72
2018-10-21T16:30:52.277Z,77.46
2018-10-21T16:33:20.567Z,78.22
2018-10-21T16:35:44.934Z,78.89
2018-10-21T16:38:11.306Z,78.58
2018-10-21T16:40:37.594Z,77.86
2018-10-21T16:43:03.929Z,78.46
2018-10-21T16:45:30.259Z,82.70
2018-10-21T16:47:56.640Z,84.20
2018-10-21T16:50:22.946Z,83.56
2018-10-21T16:52:49.341Z,82.67
2018-10-21T16:55:15.698Z,82.13
2018-10-21T16:57:42.067Z,81.89
2018-10-21T17:00:08.423Z,81.71
2018-10-21T17:02:34.705Z,80.21
2018-10-21T17:05:01.030Z,78.97
2018-10-21T17:07:27.365Z,77.72
2018-10-21T17:09:54.052Z,77.45
2018-10-21T17:12:20.143Z,77.74
2018-10-21T17:14:46.472Z,77.66
2018-10-21T17:17:12.846Z,77.16
2018-10-21T17:19:39.114Z,76.81
2018-10-21T17:22:05.462Z,76.91
2018-10-21T17:24:31.822Z,76.72
2018-10-21T17:26:58.156Z,76.69
2018-10-21T17:29:24.493Z,78.34
2018-10-21T17:31:51.177Z,79.12
2018-10-21T17:34:17.582Z,78.97
2018-10-21T17:36:43.839Z,78.40
2018-10-21T17:39:10.159Z,77.82
2018-10-21T17:41:36.497Z,78.77
2018-10-21T17:44:02.823Z,78.71
2018-10-21T17:46:29.192Z,78.52
2018-10-21T17:48:56.505Z,78.34
2018-10-21T17:51:23.166Z,78.12
2018-10-21T17:53:49.490Z,77.60
2018-10-21T17:56:15.779Z,77.12
2018-10-21T17:58:42.211Z,77.70
2018-10-21T18:01:08.455Z,77.60
2018-10-21T18:03:34.773Z,77.58
2018-10-21T18:06:01.116Z,78.02
2018-10-21T18:08:27.447Z,77.69
2018-10-21T18:10:53.766Z,78.53
2018-10-21T18:13:20.083Z,78.90
2018-10-21T18:15:46.417Z,78.46
2018-10-21T18:18:12.779Z,78.86
2018-10-21T18:20:39.152Z,78.48
2018-10-21T18:23:05.424Z,78.95
2018-10-21T18:25:31.747Z,78.02
2018-10-21T18:27:58.114Z,78.20
2018-10-21T18:30:30.921Z,79.23
2018-10-21T18:32:50.995Z,79.12
2018-10-21T18:35:17.283Z,78.57
2018-10-21T18:37:43.621Z,78.71
2018-10-21T18:40:10.009Z,78.02
2018-10-21T18:42:36.386Z,78.35
2018-10-21T18:45:02.653Z,78.84
2018-10-21T18:47:28.974Z,78.74
2018-10-21T18:49:55.319Z,78.90
2018-10-21T18:52:21.675Z,78.64
2018-10-21T18:54:48.311Z,78.68
2018-10-21T18:57:14.604Z,79.44
2018-10-21T18:59:40.927Z,79.75
2018-10-21T19:02:07.260Z,79.43
2018-10-21T19:04:33.600Z,79.86
2018-10-21T19:06:59.937Z,80.70
2018-10-21T19:09:26.281Z,82.54
2018-10-21T19:11:52.593Z,83.87
2018-10-21T19:14:18.918Z,84.08
2018-10-21T19:16:45.243Z,85.15
2018-10-21T19:19:11.668Z,86.10
2018-10-21T19:21:37.899Z,86.16
2018-10-21T19:24:04.216Z,87.06
2018-10-21T19:26:30.568Z,87.38
2018-10-21T19:28:56.855Z,87.27
2018-10-21T19:31:23.197Z,87.12
2018-10-21T19:33:49.534Z,87.10
2018-10-21T19:36:15.862Z,87.04
2018-10-21T19:38:42.197Z,87.61
2018-10-21T19:41:08.507Z,88.45
2018-10-21T19:43:34.892Z,88.57
2018-10-21T19:46:01.183Z,88.80
2018-10-21T19:48:27.510Z,89.34
2018-10-21T19:50:53.873Z,88.92
2018-10-21T19:53:20.183Z,88.69
2018-10-21T19:55:46.533Z,89.36
2018-10-21T19:58:12.896Z,89.02
2018-10-21T20:00:39.175Z,87.97
2018-10-21T20:03:05.510Z,88.07
2018-10-21T20:05:31.831Z,88.14
2018-10-21T20:07:58.151Z,88.25
2018-10-21T20:10:24.478Z,88.26
2018-10-21T20:12:50.798Z,88.46
2018-10-21T20:15:17.125Z,88.09
2018-10-21T20:17:43.455Z,87.59
2018-10-21T20:20:10.065Z,87.96
2018-10-21T20:22:36.386Z,87.92
2018-10-21T20:25:02.778Z,87.82
2018-10-21T20:27:29.090Z,88.32
2018-10-21T20:29:55.424Z,88.37
2018-10-21T20:32:21.738Z,88.38
2018-10-21T20:34:48.062Z,87.90
2018-10-21T20:37:14.433Z,88.88
2018-10-21T20:39:40.802Z,89.64
2018-10-21T20:42:07.195Z,89.46
2018-10-21T20:44:33.530Z,89.17
2018-10-21T20:46:59.854Z,89.14
2018-10-21T20:49:26.179Z,89.21
2018-10-21T20:51:52.641Z,89.74
2018-10-21T20:54:19.019Z,89.67
2018-10-21T20:56:45.289Z,89.48
2018-10-21T20:59:11.625Z,89.47
2018-10-21T21:01:37.968Z,89.77
2018-10-21T21:04:04.327Z,89.81
2018-10-21T21:06:30.627Z,89.77
2018-10-21T21:08:56.958Z,90.07
2018-10-21T21:11:23.331Z,90.36
2018-10-21T21:13:49.669Z,90.55
2018-10-21T21:16:16.067Z,90.83
2018-10-21T21:18:42.314Z,90.62
2018-10-21T21:21:08.651Z,90.63
2018-10-21T21:23:34.974Z,90.41
2018-10-21T21:26:01.343Z,90.20
2018-10-21T21:28:27.671Z,90.15
2018-10-21T21:30:53.997Z,90.06
2018-10-21T21:33:20.310Z,89.98
2018-10-21T21:35:46.657Z,91.18
2018-10-21T21:38:12.988Z,90.52
2018-10-21T21:40:39.322Z,90.65
2018-10-21T21:43:05.646Z,90.34
2018-10-21T21:45:31.963Z,91.16
2018-10-21T21:47:58.318Z,91.05
2018-10-21T21:50:24.628Z,90.92
2018-10-21T21:52:50.961Z,90.92
2018-10-21T21:55:17.270Z,91.33
2018-10-21T21:57:43.589Z,90.93
2018-10-21T22:00:10.015Z,90.45
2018-10-21T22:02:36.277Z,90.22
2018-10-21T22:05:02.666Z,90.07
2018-10-21T22:07:28.970Z,90.11
2018-10-21T22:09:55.300Z,90.53
2018-10-21T22:12:21.808Z,90.51
2018-10-21T22:14:47.959Z,90.57
2018-10-21T22:17:14.303Z,90.80
2018-10-21T22:19:40.604Z,91.39
2018-10-21T22:22:06.990Z,91.64
2018-10-21T22:24:33.257Z,91.83
2018-10-21T22:26:59.560Z,91.95
2018-10-21T22:29:25.868Z,91.96
2018-10-21T22:31:52.178Z,91.75
2018-10-21T22:34:18.515Z,91.74
2018-10-21T22:36:44.838Z,91.55
2018-10-21T22:39:11.107Z,92.37
2018-10-21T22:41:37.505Z,92.60
2018-10-21T22:44:03.831Z,92.19
2018-10-21T22:46:30.177Z,91.82
2018-10-21T22:48:56.446Z,91.92
2018-10-21T22:51:22.762Z,92.04
2018-10-21T22:53:49.060Z,92.06
2018-10-21T22:56:15.398Z,91.95
2018-10-21T22:58:41.742Z,92.51
2018-10-21T23:01:08.109Z,92.38
2018-10-21T23:03:34.406Z,92.00
2018-10-21T23:06:00.744Z,92.04
2018-10-21T23:08:27.078Z,92.75
2018-10-21T23:10:53.405Z,92.58
2018-10-21T23:13:19.780Z,92.33
2018-10-21T23:15:46.101Z,92.48
2018-10-21T23:18:12.469Z,92.06
2018-10-21T23:20:38.739Z,92.26
2018-10-21T23:23:05.042Z,91.24
2018-10-21T23:25:31.348Z,91.48
2018-10-21T23:27:57.671Z,91.35
2018-10-21T23:30:23.999Z,91.80
2018-10-21T23:32:50.336Z,91.38
2018-10-21T23:35:16.680Z,91.58
2018-10-21T23:37:43.011Z,91.87
2018-10-21T23:40:09.402Z,92.11
2018-10-21T23:42:35.705Z,92.28
2018-10-21T23:45:02.070Z,92.36
2018-10-21T23:47:28.362Z,92.66
2018-10-21T23:49:54.687Z,92.63
2018-10-21T23:52:21.071Z,92.51
2018-10-21T23:54:47.311Z,92.63
2018-10-21T23:57:13.648Z,92.55
2018-10-21T23:59:39.985Z,91.54
